Portada
METAR-TAF:

METAR-TAF

Aeropuertos :

Mécheria, Argelia

latitud: 34-56N, longitud: 000-26W, altitud: 1149 m

Observación

El informe se hizo hace 6 horas y 39 minutos, a las 22:00 UTC
Viento 14 kt del norte
Temperatura 29°C
Humedad 35%
Presión 1018 hPa
Visibilidad: 5000 m
Nubes dispersas a una altura de 3000 ft
Nubes dispersas a una altura de 10000 ft

METAR: DAAY 202200Z 36014KT 5000 SCT030 SCT100 29/12 Q1018

Hora: 05:39 (04:39 UTC)

Pronóstico

El informe se hizo hace 5 horas y 39 minutos, a las 23:00 UTC
Pronóstico válido del 21 a las 00 UTC al 21 a las 09 UTC
Viento 14 kt del norte
Visibilidad: 5000 m
Nubes dispersas a una altura de 3000 ft
Nubes dispersas a una altura de 10000 ft
Evolucionando progresivamente
del 21 a las 06 UTC al 21 a las 03 UTC
Viento 14 kt del sur

TAF: DAAY 202300Z 2100/2109 36014KT 5000 SCT030 SCT100 BECMG 2106/2103 18014KT

Observaciones y pronósticos meteorológicos de más de 4000 aeropuertos (mensajes METAR y TAF).

Los puntos amarillos y rojos representan las estaciones disponibles.

Ponga el ratón en el punto deseado para ver el nombre de la estación.

Haga clic para ver las observaciones y los pronósticos meteorológicos.

Para cambiar el mapa : haga clic en los botones verdes con una cruz de color negro para hacer un zoom, en el botón verde con un guión para alejar o en las flechas verdes para mapas adyacentes.


METAR-TAF: